sensor_id;sensor_type;location;lat;lon;timestamp;pressure;altitude;pressure_sealevel;temperature;humidity
52535;BME280;38443;53.164;5.802;2023-09-18T00:00:24;101046.97;;;14.77;100.00
52535;BME280;38443;53.164;5.802;2023-09-18T00:02:50;101029.88;;;14.78;100.00
52535;BME280;38443;53.164;5.802;2023-09-18T00:05:15;101025.44;;;14.77;100.00
52535;BME280;38443;53.164;5.802;2023-09-18T00:07:44;101011.97;;;14.77;100.00
52535;BME280;38443;53.164;5.802;2023-09-18T00:10:12;100999.44;;;14.76;100.00
52535;BME280;38443;53.164;5.802;2023-09-18T00:12:39;100995.88;;;14.75;100.00
52535;BME280;38443;53.164;5.802;2023-09-18T00:15:05;100992.22;;;14.76;100.00
52535;BME280;38443;53.164;5.802;2023-09-18T00:17:31;100984.13;;;14.76;100.00
52535;BME280;38443;53.164;5.802;2023-09-18T00:19:56;100969.81;;;14.76;100.00
52535;BME280;38443;53.164;5.802;2023-09-18T00:22:21;100960.91;;;14.74;100.00
52535;BME280;38443;53.164;5.802;2023-09-18T00:24:47;100959.88;;;14.76;100.00
52535;BME280;38443;53.164;5.802;2023-09-18T00:27:13;100957.13;;;14.78;100.00
52535;BME280;38443;53.164;5.802;2023-09-18T00:29:39;100943.66;;;14.78;100.00
52535;BME280;38443;53.164;5.802;2023-09-18T00:32:04;100936.22;;;14.83;100.00
52535;BME280;38443;53.164;5.802;2023-09-18T00:34:30;100923.72;;;14.82;100.00
52535;BME280;38443;53.164;5.802;2023-09-18T00:36:57;100924.50;;;14.84;100.00
52535;BME280;38443;53.164;5.802;2023-09-18T00:39:22;100917.31;;;14.85;100.00
52535;BME280;38443;53.164;5.802;2023-09-18T00:41:47;100907.38;;;14.85;100.00
52535;BME280;38443;53.164;5.802;2023-09-18T00:44:16;100907.31;;;14.87;100.00
52535;BME280;38443;53.164;5.802;2023-09-18T00:46:42;100903.75;;;14.86;100.00
52535;BME280;38443;53.164;5.802;2023-09-18T00:49:07;100903.81;;;14.85;100.00
52535;BME280;38443;53.164;5.802;2023-09-18T00:51:33;100897.50;;;14.86;100.00
52535;BME280;38443;53.164;5.802;2023-09-18T00:53:58;100883.13;;;14.85;100.00
52535;BME280;38443;53.164;5.802;2023-09-18T00:56:24;100882.25;;;14.85;100.00
52535;BME280;38443;53.164;5.802;2023-09-18T00:58:50;100869.81;;;14.82;100.00
52535;BME280;38443;53.164;5.802;2023-09-18T01:01:18;100865.34;;;14.81;100.00
52535;BME280;38443;53.164;5.802;2023-09-18T01:03:50;100860.13;;;14.78;100.00
52535;BME280;38443;53.164;5.802;2023-09-18T01:06:16;100862.88;;;14.76;100.00
52535;BME280;38443;53.164;5.802;2023-09-18T01:08:44;100853.94;;;14.76;100.00
52535;BME280;38443;53.164;5.802;2023-09-18T01:11:16;100851.38;;;14.73;100.00
52535;BME280;38443;53.164;5.802;2023-09-18T01:14:03;100846.06;;;14.71;100.00
52535;BME280;38443;53.164;5.802;2023-09-18T01:16:44;100846.16;;;14.70;100.00
52535;BME280;38443;53.164;5.802;2023-09-18T01:19:11;100848.03;;;14.68;100.00
52535;BME280;38443;53.164;5.802;2023-09-18T01:21:36;100847.16;;;14.67;100.00
52535;BME280;38443;53.164;5.802;2023-09-18T01:24:02;100854.41;;;14.65;100.00
52535;BME280;38443;53.164;5.802;2023-09-18T01:26:28;100842.84;;;14.63;100.00
52535;BME280;38443;53.164;5.802;2023-09-18T01:28:53;100840.13;;;14.63;100.00
52535;BME280;38443;53.164;5.802;2023-09-18T01:31:19;100844.66;;;14.63;100.00
52535;BME280;38443;53.164;5.802;2023-09-18T01:33:45;100832.16;;;14.62;100.00
52535;BME280;38443;53.164;5.802;2023-09-18T01:36:13;100835.72;;;14.62;100.00
52535;BME280;38443;53.164;5.802;2023-09-18T01:38:39;100822.31;;;14.61;100.00
52535;BME280;38443;53.164;5.802;2023-09-18T01:41:05;100814.16;;;14.62;100.00
52535;BME280;38443;53.164;5.802;2023-09-18T01:43:30;100797.13;;;14.62;100.00
52535;BME280;38443;53.164;5.802;2023-09-18T01:45:56;100792.63;;;14.62;100.00
52535;BME280;38443;53.164;5.802;2023-09-18T01:48:21;100782.75;;;14.61;100.00
52535;BME280;38443;53.164;5.802;2023-09-18T01:50:46;100787.16;;;14.64;100.00
52535;BME280;38443;53.164;5.802;2023-09-18T01:53:12;100775.50;;;14.63;100.00
52535;BME280;38443;53.164;5.802;2023-09-18T01:55:37;100770.19;;;14.62;100.00
52535;BME280;38443;53.164;5.802;2023-09-18T01:58:02;100771.06;;;14.62;100.00
52535;BME280;38443;53.164;5.802;2023-09-18T02:00:28;100767.50;;;14.62;100.00
52535;BME280;38443;53.164;5.802;2023-09-18T02:02:53;100771.13;;;14.61;100.00
52535;BME280;38443;53.164;5.802;2023-09-18T02:05:18;100773.88;;;14.59;100.00
52535;BME280;38443;53.164;5.802;2023-09-18T02:07:44;100769.47;;;14.58;100.00
52535;BME280;38443;53.164;5.802;2023-09-18T02:10:09;100769.41;;;14.60;100.00
52535;BME280;38443;53.164;5.802;2023-09-18T02:12:34;100767.34;;;14.65;100.00
52535;BME280;38443;53.164;5.802;2023-09-18T02:15:00;100770.72;;;14.70;100.00
52535;BME280;38443;53.164;5.802;2023-09-18T02:17:30;100769.75;;;14.71;100.00
52535;BME280;38443;53.164;5.802;2023-09-18T02:19:55;100763.41;;;14.72;100.00
52535;BME280;38443;53.164;5.802;2023-09-18T02:22:21;100752.78;;;14.69;100.00
52535;BME280;38443;53.164;5.802;2023-09-18T02:24:46;100750.19;;;14.67;100.00
52535;BME280;38443;53.164;5.802;2023-09-18T02:27:11;100742.38;;;14.61;100.00
52535;BME280;38443;53.164;5.802;2023-09-18T02:29:37;100736.19;;;14.59;100.00
52535;BME280;38443;53.164;5.802;2023-09-18T02:32:02;100737.13;;;14.58;100.00
52535;BME280;38443;53.164;5.802;2023-09-18T02:34:28;100729.00;;;14.60;100.00
52535;BME280;38443;53.164;5.802;2023-09-18T02:36:53;100728.81;;;14.63;100.00
52535;BME280;38443;53.164;5.802;2023-09-18T02:39:19;100742.97;;;14.68;100.00
52535;BME280;38443;53.164;5.802;2023-09-18T02:41:44;100738.38;;;14.70;100.00
52535;BME280;38443;53.164;5.802;2023-09-18T02:44:09;100734.59;;;14.74;100.00
52535;BME280;38443;53.164;5.802;2023-09-18T02:46:37;100721.03;;;14.75;100.00
52535;BME280;38443;53.164;5.802;2023-09-18T02:49:02;100714.69;;;14.76;100.00
52535;BME280;38443;53.164;5.802;2023-09-18T02:51:27;100712.00;;;14.76;100.00
52535;BME280;38443;53.164;5.802;2023-09-18T02:53:52;100713.66;;;14.79;100.00
52535;BME280;38443;53.164;5.802;2023-09-18T02:56:18;100707.34;;;14.80;100.00
52535;BME280;38443;53.164;5.802;2023-09-18T02:58:43;100697.28;;;14.84;100.00
52535;BME280;38443;53.164;5.802;2023-09-18T03:01:09;100687.31;;;14.86;100.00
52535;BME280;38443;53.164;5.802;2023-09-18T03:03:34;100697.91;;;14.89;100.00
52535;BME280;38443;53.164;5.802;2023-09-18T03:06:04;100689.75;;;14.90;100.00
52535;BME280;38443;53.164;5.802;2023-09-18T03:08:30;100678.97;;;14.90;100.00
52535;BME280;38443;53.164;5.802;2023-09-18T03:10:56;100671.69;;;14.92;100.00
52535;BME280;38443;53.164;5.802;2023-09-18T03:13:21;100651.88;;;14.93;100.00
52535;BME280;38443;53.164;5.802;2023-09-18T03:15:47;100651.00;;;14.93;100.00
52535;BME280;38443;53.164;5.802;2023-09-18T03:18:13;100641.19;;;14.92;100.00
52535;BME280;38443;53.164;5.802;2023-09-18T03:20:38;100634.94;;;14.91;100.00
52535;BME280;38443;53.164;5.802;2023-09-18T03:23:03;100628.63;;;14.91;100.00
52535;BME280;38443;53.164;5.802;2023-09-18T03:25:29;100622.25;;;14.93;100.00
52535;BME280;38443;53.164;5.802;2023-09-18T03:27:55;100616.84;;;14.93;100.00
52535;BME280;38443;53.164;5.802;2023-09-18T03:30:22;100606.94;;;14.94;100.00
52535;BME280;38443;53.164;5.802;2023-09-18T03:32:51;100593.38;;;14.95;100.00
52535;BME280;38443;53.164;5.802;2023-09-18T03:35:18;100586.25;;;14.94;100.00
52535;BME280;38443;53.164;5.802;2023-09-18T03:37:47;100594.25;;;14.96;100.00
52535;BME280;38443;53.164;5.802;2023-09-18T03:40:13;100581.63;;;14.96;100.00
52535;BME280;38443;53.164;5.802;2023-09-18T03:42:39;100569.81;;;14.99;100.00
52535;BME280;38443;53.164;5.802;2023-09-18T03:45:08;100543.66;;;15.01;100.00
52535;BME280;38443;53.164;5.802;2023-09-18T03:47:34;100557.78;;;15.06;100.00
52535;BME280;38443;53.164;5.802;2023-09-18T03:50:01;100546.03;;;15.07;100.00
52535;BME280;38443;53.164;5.802;2023-09-18T03:52:26;100536.94;;;15.10;100.00
52535;BME280;38443;53.164;5.802;2023-09-18T03:54:52;100531.63;;;15.08;100.00
52535;BME280;38443;53.164;5.802;2023-09-18T03:57:18;100527.72;;;15.14;100.00
52535;BME280;38443;53.164;5.802;2023-09-18T03:59:43;100523.84;;;15.20;100.00
52535;BME280;38443;53.164;5.802;2023-09-18T04:02:08;100511.94;;;15.24;100.00
52535;BME280;38443;53.164;5.802;2023-09-18T04:04:33;100504.63;;;15.26;100.00
52535;BME280;38443;53.164;5.802;2023-09-18T04:06:59;100498.19;;;15.28;100.00
52535;BME280;38443;53.164;5.802;2023-09-18T04:09:24;100494.38;;;15.32;100.00
52535;BME280;38443;53.164;5.802;2023-09-18T04:11:49;100493.25;;;15.36;100.00
52535;BME280;38443;53.164;5.802;2023-09-18T04:14:15;100482.38;;;15.38;100.00
52535;BME280;38443;53.164;5.802;2023-09-18T04:16:40;100494.88;;;15.39;100.00
52535;BME280;38443;53.164;5.802;2023-09-18T04:19:07;100496.56;;;15.42;100.00
52535;BME280;38443;53.164;5.802;2023-09-18T04:21:33;100488.22;;;15.46;100.00
52535;BME280;38443;53.164;5.802;2023-09-18T04:23:58;100491.63;;;15.50;100.00
52535;BME280;38443;53.164;5.802;2023-09-18T04:26:24;100483.41;;;15.51;100.00
52535;BME280;38443;53.164;5.802;2023-09-18T04:28:54;100478.72;;;15.55;100.00
52535;BME280;38443;53.164;5.802;2023-09-18T04:31:20;100470.47;;;15.58;100.00
52535;BME280;38443;53.164;5.802;2023-09-18T04:33:45;100455.06;;;15.60;100.00
52535;BME280;38443;53.164;5.802;2023-09-18T04:36:10;100451.31;;;15.63;100.00
52535;BME280;38443;53.164;5.802;2023-09-18T04:38:35;100452.03;;;15.66;100.00
52535;BME280;38443;53.164;5.802;2023-09-18T04:41:01;100441.03;;;15.69;100.00
52535;BME280;38443;53.164;5.802;2023-09-18T04:43:26;100437.16;;;15.75;100.00
52535;BME280;38443;53.164;5.802;2023-09-18T04:45:54;100443.34;;;15.77;100.00
52535;BME280;38443;53.164;5.802;2023-09-18T04:48:19;100446.03;;;15.77;100.00
52535;BME280;38443;53.164;5.802;2023-09-18T04:50:44;100440.66;;;15.77;100.00
52535;BME280;38443;53.164;5.802;2023-09-18T04:53:10;100439.50;;;15.81;100.00
52535;BME280;38443;53.164;5.802;2023-09-18T04:55:35;100433.25;;;15.81;100.00
52535;BME280;38443;53.164;5.802;2023-09-18T04:58:00;100430.47;;;15.82;100.00
52535;BME280;38443;53.164;5.802;2023-09-18T05:00:26;100431.31;;;15.83;100.00
52535;BME280;38443;53.164;5.802;2023-09-18T05:02:52;100425.94;;;15.83;100.00
52535;BME280;38443;53.164;5.802;2023-09-18T05:05:18;100416.00;;;15.83;100.00
52535;BME280;38443;53.164;5.802;2023-09-18T05:07:43;100416.78;;;15.85;100.00
52535;BME280;38443;53.164;5.802;2023-09-18T05:10:09;100410.59;;;15.83;100.00
52535;BME280;38443;53.164;5.802;2023-09-18T05:12:34;100418.53;;;15.86;100.00
52535;BME280;38443;53.164;5.802;2023-09-18T05:15:00;100418.53;;;15.86;100.00
52535;BME280;38443;53.164;5.802;2023-09-18T05:17:46;100410.44;;;15.86;100.00
52535;BME280;38443;53.164;5.802;2023-09-18T05:20:12;100408.78;;;15.84;100.00
52535;BME280;38443;53.164;5.802;2023-09-18T05:22:39;100406.09;;;15.84;100.00
52535;BME280;38443;53.164;5.802;2023-09-18T05:25:05;100403.13;;;15.88;100.00
52535;BME280;38443;53.164;5.802;2023-09-18T05:27:32;100398.41;;;15.92;100.00
52535;BME280;38443;53.164;5.802;2023-09-18T05:29:57;100396.56;;;15.92;100.00
52535;BME280;38443;53.164;5.802;2023-09-18T05:32:22;100401.78;;;15.95;100.00
52535;BME280;38443;53.164;5.802;2023-09-18T05:34:48;100408.78;;;16.00;100.00
52535;BME280;38443;53.164;5.802;2023-09-18T05:37:13;100415.88;;;16.01;100.00
52535;BME280;38443;53.164;5.802;2023-09-18T05:39:39;100410.31;;;16.04;100.00
52535;BME280;38443;53.164;5.802;2023-09-18T05:42:05;100427.09;;;16.09;100.00
52535;BME280;38443;53.164;5.802;2023-09-18T05:44:30;100432.34;;;16.12;100.00
52535;BME280;38443;53.164;5.802;2023-09-18T05:46:55;100439.19;;;16.18;100.00
52535;BME280;38443;53.164;5.802;2023-09-18T05:49:21;100441.63;;;16.22;100.00
52535;BME280;38443;53.164;5.802;2023-09-18T05:51:46;100447.72;;;16.26;100.00
52535;BME280;38443;53.164;5.802;2023-09-18T05:54:14;100442.22;;;16.27;100.00
52535;BME280;38443;53.164;5.802;2023-09-18T05:56:39;100440.19;;;16.31;100.00
52535;BME280;38443;53.164;5.802;2023-09-18T05:59:04;100430.09;;;16.34;100.00
52535;BME280;38443;53.164;5.802;2023-09-18T06:01:31;100420.84;;;16.39;100.00
52535;BME280;38443;53.164;5.802;2023-09-18T06:03:58;100429.53;;;16.44;100.00
52535;BME280;38443;53.164;5.802;2023-09-18T06:06:23;100436.50;;;16.48;100.00
52535;BME280;38443;53.164;5.802;2023-09-18T06:08:50;100445.88;;;16.57;100.00
52535;BME280;38443;53.164;5.802;2023-09-18T06:11:15;100448.19;;;16.63;100.00
52535;BME280;38443;53.164;5.802;2023-09-18T06:13:41;100436.25;;;16.67;100.00
52535;BME280;38443;53.164;5.802;2023-09-18T06:16:06;100439.53;;;16.72;100.00
52535;BME280;38443;53.164;5.802;2023-09-18T06:18:33;100436.72;;;16.73;100.00
52535;BME280;38443;53.164;5.802;2023-09-18T06:20:58;100431.22;;;16.75;100.00
52535;BME280;38443;53.164;5.802;2023-09-18T06:23:24;100406.81;;;16.77;100.00
52535;BME280;38443;53.164;5.802;2023-09-18T06:25:49;100400.44;;;16.78;100.00
52535;BME280;38443;53.164;5.802;2023-09-18T06:28:20;100414.72;;;16.80;100.00
52535;BME280;38443;53.164;5.802;2023-09-18T06:30:45;100428.22;;;16.80;100.00
52535;BME280;38443;53.164;5.802;2023-09-18T06:33:11;100446.03;;;16.84;100.00
52535;BME280;38443;53.164;5.802;2023-09-18T06:35:37;100412.72;;;16.83;100.00
52535;BME280;38443;53.164;5.802;2023-09-18T06:38:03;100417.63;;;16.77;100.00
52535;BME280;38443;53.164;5.802;2023-09-18T06:40:30;100439.34;;;16.75;100.00
52535;BME280;38443;53.164;5.802;2023-09-18T06:42:59;100434.13;;;16.72;100.00
52535;BME280;38443;53.164;5.802;2023-09-18T06:45:25;100427.19;;;16.68;100.00
52535;BME280;38443;53.164;5.802;2023-09-18T06:47:50;100428.22;;;16.65;100.00
52535;BME280;38443;53.164;5.802;2023-09-18T06:50:16;100422.13;;;16.62;100.00
52535;BME280;38443;53.164;5.802;2023-09-18T06:52:43;100412.38;;;16.59;100.00
52535;BME280;38443;53.164;5.802;2023-09-18T06:55:09;100409.75;;;16.58;100.00
52535;BME280;38443;53.164;5.802;2023-09-18T06:57:34;100405.44;;;16.55;100.00
52535;BME280;38443;53.164;5.802;2023-09-18T07:00:00;100399.25;;;16.53;100.00
52535;BME280;38443;53.164;5.802;2023-09-18T07:02:25;100395.59;;;16.54;100.00
52535;BME280;38443;53.164;5.802;2023-09-18T07:04:52;100390.28;;;16.52;100.00
52535;BME280;38443;53.164;5.802;2023-09-18T07:07:17;100396.63;;;16.51;100.00
52535;BME280;38443;53.164;5.802;2023-09-18T07:09:50;100391.34;;;16.50;100.00
52535;BME280;38443;53.164;5.802;2023-09-18T07:12:15;100387.66;;;16.51;100.00
52535;BME280;38443;53.164;5.802;2023-09-18T07:14:40;100377.94;;;16.48;100.00
52535;BME280;38443;53.164;5.802;2023-09-18T07:17:06;100372.63;;;16.47;100.00
52535;BME280;38443;53.164;5.802;2023-09-18T07:19:31;100393.38;;;16.46;100.00
52535;BME280;38443;53.164;5.802;2023-09-18T07:21:58;100394.13;;;16.48;100.00
52535;BME280;38443;53.164;5.802;2023-09-18T07:24:24;100402.16;;;16.50;100.00
52535;BME280;38443;53.164;5.802;2023-09-18T07:26:49;100409.50;;;16.48;100.00
52535;BME280;38443;53.164;5.802;2023-09-18T07:29:15;100413.81;;;16.50;100.00
52535;BME280;38443;53.164;5.802;2023-09-18T07:31:42;100412.97;;;16.50;100.00
52535;BME280;38443;53.164;5.802;2023-09-18T07:34:08;100403.97;;;16.49;100.00
52535;BME280;38443;53.164;5.802;2023-09-18T07:36:33;100403.78;;;16.52;100.00
52535;BME280;38443;53.164;5.802;2023-09-18T07:38:59;100399.34;;;16.51;100.00
52535;BME280;38443;53.164;5.802;2023-09-18T07:41:24;100390.28;;;16.52;100.00
52535;BME280;38443;53.164;5.802;2023-09-18T07:43:50;100393.84;;;16.53;100.00
52535;BME280;38443;53.164;5.802;2023-09-18T07:46:16;100393.00;;;16.52;100.00
52535;BME280;38443;53.164;5.802;2023-09-18T07:48:41;100397.41;;;16.53;100.00
52535;BME280;38443;53.164;5.802;2023-09-18T07:51:10;100394.72;;;16.53;100.00
52535;BME280;38443;53.164;5.802;2023-09-18T07:53:36;100400.03;;;16.55;100.00
52535;BME280;38443;53.164;5.802;2023-09-18T07:56:01;100404.47;;;16.56;100.00
52535;BME280;38443;53.164;5.802;2023-09-18T07:58:29;100407.19;;;16.56;100.00
52535;BME280;38443;53.164;5.802;2023-09-18T08:00:57;100411.53;;;16.59;100.00
52535;BME280;38443;53.164;5.802;2023-09-18T08:03:25;100414.13;;;16.60;100.00
52535;BME280;38443;53.164;5.802;2023-09-18T08:05:54;100409.59;;;16.61;100.00
52535;BME280;38443;53.164;5.802;2023-09-18T08:08:21;100398.59;;;16.64;100.00
52535;BME280;38443;53.164;5.802;2023-09-18T08:10:47;100398.41;;;16.67;100.00
52535;BME280;38443;53.164;5.802;2023-09-18T08:13:13;100405.34;;;16.71;100.00
52535;BME280;38443;53.164;5.802;2023-09-18T08:15:38;100421.41;;;16.74;100.00
52535;BME280;38443;53.164;5.802;2023-09-18T08:18:04;100418.69;;;16.74;100.00
52535;BME280;38443;53.164;5.802;2023-09-18T08:20:29;100418.41;;;16.79;100.00
52535;BME280;38443;53.164;5.802;2023-09-18T08:22:55;100422.78;;;16.81;100.00
52535;BME280;38443;53.164;5.802;2023-09-18T08:25:21;100434.19;;;16.86;100.00
52535;BME280;38443;53.164;5.802;2023-09-18T08:27:46;100432.94;;;16.92;100.00
52535;BME280;38443;53.164;5.802;2023-09-18T08:30:13;100432.53;;;16.98;100.00
52535;BME280;38443;53.164;5.802;2023-09-18T08:32:39;100431.47;;;17.01;100.00
52535;BME280;38443;53.164;5.802;2023-09-18T08:35:06;100414.94;;;17.05;100.00
52535;BME280;38443;53.164;5.802;2023-09-18T08:37:31;100421.03;;;17.09;100.00
52535;BME280;38443;53.164;5.802;2023-09-18T08:39:57;100420.75;;;17.13;100.00
52535;BME280;38443;53.164;5.802;2023-09-18T08:42:22;100421.34;;;17.19;100.00
52535;BME280;38443;53.164;5.802;2023-09-18T08:44:49;100423.72;;;17.23;100.00
52535;BME280;38443;53.164;5.802;2023-09-18T08:47:17;100414.28;;;17.30;100.00
52535;BME280;38443;53.164;5.802;2023-09-18T08:49:43;100437.16;;;17.39;100.00
52535;BME280;38443;53.164;5.802;2023-09-18T08:52:10;100436.84;;;17.44;100.00
52535;BME280;38443;53.164;5.802;2023-09-18T08:54:36;100443.69;;;17.49;100.00
52535;BME280;38443;53.164;5.802;2023-09-18T08:57:01;100436.06;;;17.56;100.00
52535;BME280;38443;53.164;5.802;2023-09-18T08:59:28;100430.25;;;17.62;100.00
52535;BME280;38443;53.164;5.802;2023-09-18T09:01:54;100439.78;;;17.68;100.00
52535;BME280;38443;53.164;5.802;2023-09-18T09:04:19;100435.81;;;17.73;100.00
52535;BME280;38443;53.164;5.802;2023-09-18T09:06:46;100442.88;;;17.76;100.00
52535;BME280;38443;53.164;5.802;2023-09-18T09:09:11;100438.25;;;17.78;100.00
52535;BME280;38443;53.164;5.802;2023-09-18T09:11:38;100450.59;;;17.82;100.00
52535;BME280;38443;53.164;5.802;2023-09-18T09:14:11;100462.00;;;17.87;100.00
52535;BME280;38443;53.164;5.802;2023-09-18T09:16:41;100461.69;;;17.92;100.00
52535;BME280;38443;53.164;5.802;2023-09-18T09:19:11;100458.13;;;17.91;100.00
52535;BME280;38443;53.164;5.802;2023-09-18T09:21:41;100450.50;;;17.98;100.00
52535;BME280;38443;53.164;5.802;2023-09-18T09:24:08;100465.34;;;18.05;100.00
52535;BME280;38443;53.164;5.802;2023-09-18T09:26:39;100452.47;;;18.09;100.00
52535;BME280;38443;53.164;5.802;2023-09-18T09:29:19;100459.75;;;18.08;100.00
52535;BME280;38443;53.164;5.802;2023-09-18T09:31:46;100463.47;;;18.20;100.00
52535;BME280;38443;53.164;5.802;2023-09-18T09:34:24;100458.41;;;18.41;100.00
52535;BME280;38443;53.164;5.802;2023-09-18T09:36:54;100453.34;;;18.49;100.00
52535;BME280;38443;53.164;5.802;2023-09-18T09:39:20;100468.44;;;18.66;100.00
52535;BME280;38443;53.164;5.802;2023-09-18T09:41:47;100468.28;;;18.82;100.00
52535;BME280;38443;53.164;5.802;2023-09-18T09:44:13;100467.19;;;18.85;100.00
52535;BME280;38443;53.164;5.802;2023-09-18T09:46:46;100464.88;;;18.79;100.00
52535;BME280;38443;53.164;5.802;2023-09-18T09:49:11;100463.63;;;18.84;100.00
52535;BME280;38443;53.164;5.802;2023-09-18T09:51:36;100455.06;;;18.90;100.00
52535;BME280;38443;53.164;5.802;2023-09-18T09:54:03;100458.72;;;18.89;100.00
52535;BME280;38443;53.164;5.802;2023-09-18T09:56:57;100453.94;;;18.80;100.00
52535;BME280;38443;53.164;5.802;2023-09-18T09:59:27;100453.63;;;18.85;100.00
52535;BME280;38443;53.164;5.802;2023-09-18T10:01:55;100448.41;;;18.82;100.00
52535;BME280;38443;53.164;5.802;2023-09-18T10:04:22;100453.41;;;18.88;100.00
52535;BME280;38443;53.164;5.802;2023-09-18T10:07:05;100457.63;;;18.92;100.00
52535;BME280;38443;53.164;5.802;2023-09-18T10:09:34;100439.09;;;18.99;100.00
52535;BME280;38443;53.164;5.802;2023-09-18T10:12:01;100446.88;;;19.16;100.00
52535;BME280;38443;53.164;5.802;2023-09-18T10:14:30;100451.75;;;19.24;100.00
52535;BME280;38443;53.164;5.802;2023-09-18T10:17:16;100452.09;;;19.32;100.00
52535;BME280;38443;53.164;5.802;2023-09-18T10:19:54;100441.78;;;19.37;100.00
52535;BME280;38443;53.164;5.802;2023-09-18T10:22:31;100440.88;;;19.49;100.00
52535;BME280;38443;53.164;5.802;2023-09-18T10:25:14;100423.44;;;19.41;100.00
52535;BME280;38443;53.164;5.802;2023-09-18T10:27:45;100422.53;;;19.53;100.00
52535;BME280;38443;53.164;5.802;2023-09-18T10:30:12;100420.72;;;19.78;100.00
52535;BME280;38443;53.164;5.802;2023-09-18T10:32:41;100416.91;;;19.80;100.00
52535;BME280;38443;53.164;5.802;2023-09-18T10:35:07;100400.50;;;19.82;100.00
52535;BME280;38443;53.164;5.802;2023-09-18T10:37:34;100402.06;;;19.73;100.00
52535;BME280;38443;53.164;5.802;2023-09-18T10:40:01;100398.34;;;19.74;100.00
52535;BME280;38443;53.164;5.802;2023-09-18T10:42:27;100413.69;;;19.75;100.00
52535;BME280;38443;53.164;5.802;2023-09-18T10:44:55;100415.06;;;19.68;100.00
52535;BME280;38443;53.164;5.802;2023-09-18T10:47:21;100416.00;;;19.56;100.00
52535;BME280;38443;53.164;5.802;2023-09-18T10:49:47;100414.59;;;19.50;100.00
52535;BME280;38443;53.164;5.802;2023-09-18T10:52:15;100416.84;;;19.56;100.00
52535;BME280;38443;53.164;5.802;2023-09-18T10:54:40;100394.66;;;19.62;100.00
52535;BME280;38443;53.164;5.802;2023-09-18T10:57:06;100399.47;;;19.71;100.00
52535;BME280;38443;53.164;5.802;2023-09-18T10:59:31;100396.31;;;19.65;100.00
52535;BME280;38443;53.164;5.802;2023-09-18T11:02:02;100382.38;;;19.69;100.00
52535;BME280;38443;53.164;5.802;2023-09-18T11:04:31;100378.09;;;19.91;100.00
52535;BME280;38443;53.164;5.802;2023-09-18T11:07:03;100385.19;;;20.05;100.00
52535;BME280;38443;53.164;5.802;2023-09-18T11:09:31;100395.06;;;20.06;100.00
52535;BME280;38443;53.164;5.802;2023-09-18T11:14:50;100390.44;;;19.71;100.00
52535;BME280;38443;53.164;5.802;2023-09-18T11:20:06;100390.63;;;19.68;100.00
52535;BME280;38443;53.164;5.802;2023-09-18T11:22:39;100400.47;;;19.95;100.00
52535;BME280;38443;53.164;5.802;2023-09-18T11:27:56;100391.00;;;20.47;100.00
52535;BME280;38443;53.164;5.802;2023-09-18T11:30:22;100390.69;;;20.74;100.00
52535;BME280;38443;53.164;5.802;2023-09-18T11:32:49;100382.31;;;20.77;100.00
52535;BME280;38443;53.164;5.802;2023-09-18T11:35:14;100380.34;;;20.79;100.00
52535;BME280;38443;53.164;5.802;2023-09-18T11:37:43;100377.09;;;20.74;100.00
52535;BME280;38443;53.164;5.802;2023-09-18T11:40:28;100375.06;;;20.53;100.00
52535;BME280;38443;53.164;5.802;2023-09-18T11:43:20;100385.16;;;20.40;100.00
52535;BME280;38443;53.164;5.802;2023-09-18T11:45:53;100377.59;;;20.32;100.00
52535;BME280;38443;53.164;5.802;2023-09-18T11:48:21;100382.75;;;20.13;100.00
52535;BME280;38443;53.164;5.802;2023-09-18T11:50:49;100363.91;;;19.99;100.00
52535;BME280;38443;53.164;5.802;2023-09-18T11:53:17;100373.97;;;20.09;100.00
52535;BME280;38443;53.164;5.802;2023-09-18T11:55:43;100380.41;;;20.20;100.00
52535;BME280;38443;53.164;5.802;2023-09-18T11:58:08;100396.28;;;20.37;100.00
52535;BME280;38443;53.164;5.802;2023-09-18T12:00:35;100390.00;;;20.48;100.00
52535;BME280;38443;53.164;5.802;2023-09-18T12:03:36;100373.44;;;20.40;100.00
52535;BME280;38443;53.164;5.802;2023-09-18T12:06:02;100373.38;;;20.64;100.00
52535;BME280;38443;53.164;5.802;2023-09-18T12:08:31;100385.38;;;20.72;100.00
52535;BME280;38443;53.164;5.802;2023-09-18T12:10:58;100364.75;;;20.70;100.00
52535;BME280;38443;53.164;5.802;2023-09-18T12:13:27;100371.66;;;20.74;100.00
52535;BME280;38443;53.164;5.802;2023-09-18T12:16:03;100356.94;;;20.65;100.00
52535;BME280;38443;53.164;5.802;2023-09-18T12:18:31;100369.44;;;20.68;100.00
52535;BME280;38443;53.164;5.802;2023-09-18T12:21:02;100356.16;;;20.52;100.00
52535;BME280;38443;53.164;5.802;2023-09-18T12:23:37;100368.88;;;20.51;100.00
52535;BME280;38443;53.164;5.802;2023-09-18T12:26:03;100360.84;;;20.50;100.00
52535;BME280;38443;53.164;5.802;2023-09-18T12:28:29;100358.75;;;20.53;100.00
52535;BME280;38443;53.164;5.802;2023-09-18T12:30:55;100351.81;;;20.49;100.00
52535;BME280;38443;53.164;5.802;2023-09-18T12:33:25;100351.06;;;20.36;100.00
52535;BME280;38443;53.164;5.802;2023-09-18T12:35:51;100353.38;;;20.29;100.00
52535;BME280;38443;53.164;5.802;2023-09-18T12:38:17;100368.69;;;20.30;100.00
52535;BME280;38443;53.164;5.802;2023-09-18T12:40:51;100370.41;;;20.20;100.00
52535;BME280;38443;53.164;5.802;2023-09-18T12:43:17;100374.81;;;20.10;100.00
52535;BME280;38443;53.164;5.802;2023-09-18T12:45:43;100414.31;;;20.03;100.00
52535;BME280;38443;53.164;5.802;2023-09-18T12:48:09;100412.28;;;19.93;100.00